Time;durP1;ratioP1;P1;durP2;ratioP2;P2;SDS_P1;SDS_P2;PMS_P1;PMS_P2;Temp;Humidity;BMP_temperature;BMP_pressure;BME280_temperature;BME280_humidity;BME280_pressure;Samples;Min_cycle;Max_cycle;Signal;HPM_P1;HPM_P2
2022/08/31 00:04:04;;;;;;;16.02;7.20;;;;;;;25.34;100.00;100001.28;5062041;28;20255;-80
2022/08/31 00:06:31;;;;;;;14.20;7.53;;;;;;;25.01;100.00;99953.28;5091948;28;20205;-81
2022/08/31 00:08:58;;;;;;;12.43;7.18;;;;;;;25.52;100.00;100034.13;5083024;28;20202;-80
2022/08/31 00:11:29;;;;;;;15.73;6.93;;;;;;;25.50;100.00;100028.00;5078157;28;20194;-81
2022/08/31 00:14:00;;;;;;;15.05;7.22;;;;;;;25.53;100.00;100038.50;5092248;28;20218;-80
2022/08/31 00:16:31;;;;;;;14.10;6.53;;;;;;;25.50;99.88;100022.69;5054751;28;20634;-80
2022/08/31 00:18:58;;;;;;;9.77;5.50;;;;;;;25.54;99.35;100037.59;5074224;28;20674;-79
2022/08/31 00:21:26;;;;;;;16.27;5.93;;;;;;;25.67;97.84;100037.84;5093506;28;20212;-80
2022/08/31 00:23:54;;;;;;;13.02;5.97;;;;;;;25.66;98.08;100042.31;5075318;28;20704;-81
2022/08/31 00:26:23;;;;;;;11.50;6.25;;;;;;;25.67;98.35;100029.88;5049596;28;20242;-78
2022/08/31 00:28:51;;;;;;;11.07;6.25;;;;;;;25.45;99.12;100016.72;5073138;28;20651;-80
2022/08/31 00:31:19;;;;;;;9.63;6.50;;;;;;;25.52;98.71;100015.53;5073093;28;20203;-80
2022/08/31 00:33:51;;;;;;;13.13;6.05;;;;;;;25.40;100.00;100026.72;5073398;28;20214;-80
2022/08/31 00:36:20;;;;;;;8.32;6.50;;;;;;;25.44;99.90;100020.31;5073097;28;20249;-80
2022/08/31 00:38:48;;;;;;;13.20;6.43;;;;;;;25.42;100.00;100041.63;5073258;28;20585;-80
2022/08/31 00:41:17;;;;;;;8.70;5.63;;;;;;;25.41;100.00;100039.91;5037995;28;20191;-81
2022/08/31 00:43:47;;;;;;;13.82;6.00;;;;;;;25.48;100.00;100040.47;5053168;28;20195;-81
2022/08/31 00:46:17;;;;;;;11.50;6.28;;;;;;;25.48;100.00;100045.78;5071465;28;20281;-81
2022/08/31 00:48:55;;;;;;;12.43;6.15;;;;;;;25.46;100.00;100053.84;5085818;28;20200;-78
2022/08/31 00:51:22;;;;;;;10.52;5.88;;;;;;;25.47;99.18;100054.69;5078194;28;20213;-81
2022/08/31 00:53:49;;;;;;;11.10;5.93;;;;;;;25.38;100.00;100052.44;5073108;28;20215;-79
2022/08/31 00:56:16;;;;;;;9.95;6.18;;;;;;;24.90;100.00;99979.44;5072681;28;20581;-81
2022/08/31 00:58:44;;;;;;;9.50;5.97;;;;;;;25.41;100.00;100057.63;5073482;28;20675;-80
2022/08/31 01:01:12;;;;;;;9.45;6.18;;;;;;;25.42;100.00;100051.38;5089021;28;20198;-80
2022/08/31 01:03:39;;;;;;;11.48;6.03;;;;;;;25.38;100.00;100055.13;5093101;28;20206;-78
2022/08/31 01:06:08;;;;;;;11.75;5.75;;;;;;;25.33;100.00;100046.50;5092589;28;20204;-79
2022/08/31 01:08:35;;;;;;;13.40;6.22;;;;;;;25.20;100.00;100054.16;5078734;28;20312;-78
2022/08/31 01:11:02;;;;;;;7.47;6.05;;;;;;;25.05;100.00;100025.66;5072558;28;20195;-80
2022/08/31 01:13:30;;;;;;;13.82;6.80;;;;;;;25.14;100.00;100025.25;5073726;28;20225;-80
2022/08/31 01:16:03;;;;;;;11.23;7.13;;;;;;;25.13;100.00;100023.53;5078622;28;20198;-80
2022/08/31 01:18:32;;;;;;;10.75;5.63;;;;;;;25.25;100.00;100053.97;5061554;28;20191;-81
2022/08/31 01:21:17;;;;;;;10.20;5.90;;;;;;;25.27;100.00;100052.09;5072159;28;20199;-81
2022/08/31 01:23:46;;;;;;;6.97;5.78;;;;;;;25.24;100.00;100052.22;5036936;28;20222;-81
2022/08/31 01:26:16;;;;;;;14.55;6.45;;;;;;;25.21;100.00;100055.03;5082257;28;20662;-81
2022/08/31 01:28:43;;;;;;;10.98;6.00;;;;;;;25.01;100.00;100048.81;5073915;28;20205;-81
2022/08/31 01:31:19;;;;;;;17.95;7.25;;;;;;;25.03;100.00;100028.41;5073482;28;20195;-80
2022/08/31 01:33:46;;;;;;;10.50;6.38;;;;;;;25.05;100.00;100053.06;5080303;28;20770;-80
2022/08/31 01:36:14;;;;;;;12.20;6.30;;;;;;;25.05;100.00;100062.81;5092145;28;20190;-79
2022/08/31 01:38:41;;;;;;;10.30;6.72;;;;;;;24.97;100.00;100055.19;5092294;28;20243;-81
2022/08/31 01:41:09;;;;;;;10.80;6.72;;;;;;;24.94;100.00;100047.34;5091825;28;20222;-81
2022/08/31 01:43:36;;;;;;;11.07;7.32;;;;;;;24.95;100.00;100051.75;5048406;28;20659;-80
2022/08/31 01:46:07;;;;;;;18.00;6.72;;;;;;;24.65;100.00;100010.59;5066181;28;20198;-77
2022/08/31 01:48:34;;;;;;;15.18;7.00;;;;;;;24.66;100.00;100029.13;5089666;28;20198;-81
2022/08/31 01:51:01;;;;;;;10.20;6.95;;;;;;;24.78;100.00;100038.34;5077083;28;20197;-81
2022/08/31 01:53:28;;;;;;;12.10;7.18;;;;;;;24.79;100.00;100026.81;5071806;28;20240;-80
2022/08/31 01:55:55;;;;;;;18.35;7.07;;;;;;;24.79;100.00;100034.75;5091291;28;20190;-79
2022/08/31 01:58:23;;;;;;;14.27;6.85;;;;;;;24.88;100.00;100039.69;5056314;28;20194;-82
2022/08/31 02:00:50;;;;;;;11.98;7.00;;;;;;;24.89;100.00;100048.50;5089473;28;20200;-81
2022/08/31 02:03:17;;;;;;;12.15;7.18;;;;;;;24.81;100.00;100032.88;5091550;28;20202;-81
2022/08/31 02:05:44;;;;;;;12.43;7.32;;;;;;;24.89;100.00;100045.84;5091323;28;20221;-81
2022/08/31 02:08:12;;;;;;;11.80;6.57;;;;;;;24.86;100.00;100030.94;5089701;28;20202;-80
2022/08/31 02:10:39;;;;;;;18.70;7.40;;;;;;;24.89;100.00;100041.41;5089649;28;20190;-80
2022/08/31 02:13:06;;;;;;;14.05;6.60;;;;;;;24.86;100.00;100041.56;5091600;28;20285;-82
2022/08/31 02:15:35;;;;;;;12.25;7.03;;;;;;;24.90;100.00;100042.28;5079692;28;20203;-79
2022/08/31 02:18:01;;;;;;;11.48;6.15;;;;;;;24.67;100.00;100036.16;5051741;28;20226;-80
2022/08/31 02:20:28;;;;;;;8.93;6.18;;;;;;;24.66;100.00;100047.69;5081584;28;20195;-82
2022/08/31 02:23:02;;;;;;;14.05;6.22;;;;;;;24.76;100.00;100048.13;5082206;28;20194;-82
2022/08/31 02:25:29;;;;;;;11.13;6.15;;;;;;;24.78;100.00;100046.28;5078358;28;20740;-82
2022/08/31 02:27:56;;;;;;;11.77;6.10;;;;;;;24.77;100.00;100039.25;5078221;28;20257;-81
2022/08/31 02:30:23;;;;;;;15.35;6.78;;;;;;;24.71;100.00;100047.50;5033852;28;20191;-81
2022/08/31 02:32:51;;;;;;;12.98;7.00;;;;;;;24.67;100.00;100051.19;5071448;28;20187;-83
2022/08/31 02:35:18;;;;;;;11.10;6.70;;;;;;;24.56;100.00;100048.13;5050391;28;20222;-82
2022/08/31 02:37:45;;;;;;;14.57;6.90;;;;;;;24.55;100.00;100057.00;5090928;28;20202;-80
2022/08/31 02:40:13;;;;;;;12.23;6.82;;;;;;;24.54;100.00;100034.94;5090414;28;20537;-82
2022/08/31 02:42:40;;;;;;;8.80;6.53;;;;;;;24.58;100.00;100048.91;5035964;28;20214;-81
2022/08/31 02:45:08;;;;;;;12.88;6.82;;;;;;;24.72;100.00;100048.34;5065859;28;20209;-80
2022/08/31 02:47:35;;;;;;;12.27;6.18;;;;;;;24.54;100.00;100036.75;5088489;28;20199;-81
2022/08/31 02:50:06;;;;;;;7.43;6.63;;;;;;;24.64;100.00;100052.19;5077745;28;20206;-81
2022/08/31 02:52:33;;;;;;;16.85;6.35;;;;;;;24.57;100.00;100052.53;5038712;28;20194;-81
2022/08/31 02:55:00;;;;;;;8.90;6.18;;;;;;;24.56;100.00;100054.31;5083781;28;20225;-81
2022/08/31 02:57:27;;;;;;;8.38;6.72;;;;;;;24.47;100.00;100037.94;5051994;28;20191;-81
2022/08/31 02:59:54;;;;;;;8.32;6.72;;;;;;;24.55;100.00;100062.31;5070720;28;20199;-81
2022/08/31 03:02:22;;;;;;;12.43;5.85;;;;;;;24.60;100.00;100057.69;5071589;28;20594;-80
2022/08/31 03:04:49;;;;;;;14.48;6.47;;;;;;;24.50;100.00;100053.72;5075510;28;20200;-81
2022/08/31 03:07:18;;;;;;;16.02;6.32;;;;;;;24.36;100.00;100033.09;5072291;28;20209;-77
2022/08/31 03:09:45;;;;;;;19.90;7.32;;;;;;;24.50;100.00;100043.09;5070687;28;20199;-80
2022/08/31 03:12:12;;;;;;;13.27;6.18;;;;;;;24.58;100.00;100054.22;5070638;28;20230;-80
2022/08/31 03:14:39;;;;;;;14.57;6.43;;;;;;;24.70;100.00;100053.72;5071351;28;20305;-82
2022/08/31 03:17:06;;;;;;;12.68;7.05;;;;;;;24.65;100.00;100043.28;5058022;28;20201;-83
2022/08/31 03:19:33;;;;;;;9.32;6.22;;;;;;;24.74;100.00;100057.09;5088934;28;20206;-83
2022/08/31 03:22:00;;;;;;;13.85;6.05;;;;;;;24.63;100.00;100060.22;5090597;28;20205;-84
2022/08/31 03:24:30;;;;;;;15.27;7.18;;;;;;;24.58;100.00;100057.75;5054752;28;20206;-81
2022/08/31 03:26:57;;;;;;;16.90;5.93;;;;;;;24.63;100.00;100060.22;5055101;28;20290;-83
2022/08/31 03:29:24;;;;;;;10.50;6.05;;;;;;;24.60;100.00;100060.34;5090553;28;20194;-83
2022/08/31 03:31:51;;;;;;;15.20;6.82;;;;;;;24.40;100.00;100039.13;5079210;28;20199;-81
2022/08/31 03:34:18;;;;;;;15.95;6.85;;;;;;;24.49;100.00;100057.28;5070553;28;20222;-81
2022/08/31 03:36:44;;;;;;;11.75;5.70;;;;;;;24.32;100.00;100041.22;5070369;28;20238;-80
2022/08/31 03:39:11;;;;;;;12.63;6.90;;;;;;;24.38;100.00;100063.03;5085015;28;20213;-82
2022/08/31 03:41:40;;;;;;;13.98;6.60;;;;;;;24.48;100.00;100066.16;5069884;28;20191;-81
2022/08/31 03:44:07;;;;;;;9.38;5.65;;;;;;;24.33;100.00;100053.56;5081555;28;20194;-82
2022/08/31 03:46:34;;;;;;;9.88;6.25;;;;;;;24.16;100.00;100060.41;5068872;28;20202;-80
2022/08/31 03:49:02;;;;;;;8.82;6.80;;;;;;;24.26;100.00;100074.13;5070089;28;20195;-81
2022/08/31 03:51:29;;;;;;;12.90;6.78;;;;;;;24.29;100.00;100081.13;5070923;28;20201;-83
2022/08/31 03:53:56;;;;;;;12.77;6.60;;;;;;;24.33;100.00;100072.94;5070145;28;20231;-81
2022/08/31 03:56:23;;;;;;;7.70;6.43;;;;;;;24.22;100.00;100053.13;5088443;28;20202;-83
2022/08/31 03:58:52;;;;;;;8.38;6.43;;;;;;;24.43;100.00;100073.44;5092791;28;20277;-82
2022/08/31 04:01:18;;;;;;;10.15;6.50;;;;;;;24.35;100.00;100064.94;5074078;28;20199;-82
2022/08/31 04:03:45;;;;;;;14.07;6.32;;;;;;;24.30;100.00;100077.50;5077801;28;20201;-81
2022/08/31 04:06:13;;;;;;;14.18;7.18;;;;;;;24.36;100.00;100071.97;5093292;28;20220;-81
2022/08/31 04:08:40;;;;;;;7.85;6.93;;;;;;;24.39;100.00;100071.84;5072254;28;20202;-82
2022/08/31 04:11:10;;;;;;;10.10;6.47;;;;;;;24.42;100.00;100075.25;5081209;28;20194;-82
2022/08/31 04:13:38;;;;;;;6.72;6.03;;;;;;;24.43;100.00;100076.09;5074788;28;20670;-82
2022/08/31 04:16:08;;;;;;;14.38;6.82;;;;;;;24.55;100.00;100072.91;5073439;28;20707;-82
2022/08/31 04:18:36;;;;;;;14.00;6.50;;;;;;;24.52;100.00;100059.78;5080731;28;20194;-82
2022/08/31 04:21:04;;;;;;;12.65;6.82;;;;;;;24.46;100.00;100054.75;5092988;28;20206;-83
2022/08/31 04:23:31;;;;;;;15.10;6.88;;;;;;;24.42;100.00;100072.59;5093219;28;20230;-83
2022/08/31 04:25:58;;;;;;;12.57;7.22;;;;;;;24.44;100.00;100067.19;5093406;28;20206;-83
2022/08/31 04:28:25;;;;;;;10.98;6.75;;;;;;;24.56;100.00;100069.34;5094134;28;20202;-82
2022/08/31 04:30:52;;;;;;;14.75;7.35;;;;;;;24.89;100.00;100070.59;5079704;28;20209;-80
2022/08/31 04:33:20;;;;;;;11.15;7.07;;;;;;;25.08;100.00;100074.13;5074538;28;20714;-81
2022/08/31 04:35:47;;;;;;;20.90;7.43;;;;;;;25.18;100.00;100067.47;5078124;28;20218;-81
2022/08/31 04:38:14;;;;;;;22.17;7.88;;;;;;;25.41;100.00;100077.06;5093193;28;20191;-80
2022/08/31 04:40:42;;;;;;;13.95;7.85;;;;;;;25.65;100.00;100072.44;5093362;28;20198;-76
2022/08/31 04:43:10;;;;;;;12.80;7.22;;;;;;;25.69;100.00;100059.88;5093179;28;20205;-77
2022/08/31 04:45:41;;;;;;;13.55;7.68;;;;;;;25.92;99.39;100057.88;5048746;28;20191;-78
2022/08/31 04:48:08;;;;;;;12.38;7.05;;;;;;;26.19;98.29;100068.09;5073261;28;20201;-78
2022/08/31 04:50:36;;;;;;;19.73;8.18;;;;;;;26.57;94.95;100072.38;5085941;28;20688;-79
2022/08/31 04:53:03;;;;;;;14.18;7.65;;;;;;;27.03;92.41;100055.78;5037682;28;20206;-81
2022/08/31 04:55:30;;;;;;;15.13;7.38;;;;;;;27.56;88.26;100060.06;5072877;28;20229;-81
2022/08/31 04:57:57;;;;;;;16.55;7.38;;;;;;;28.14;84.38;100070.16;5073600;28;20195;-80
2022/08/31 05:00:24;;;;;;;18.27;7.82;;;;;;;28.61;80.04;100076.22;5073151;28;20298;-81
2022/08/31 05:02:52;;;;;;;12.70;6.22;;;;;;;28.67;78.51;100057.22;5080732;28;20204;-81
2022/08/31 05:05:19;;;;;;;13.65;7.07;;;;;;;29.17;76.32;100077.31;5088949;28;20644;-81
2022/08/31 05:07:48;;;;;;;12.75;6.50;;;;;;;29.65;72.79;100084.09;5072006;28;20578;-77
2022/08/31 05:10:15;;;;;;;14.75;7.78;;;;;;;29.64;72.00;100090.41;5085974;28;20197;-81
2022/08/31 05:12:43;;;;;;;48.00;28.40;;;;;;;29.49;72.50;100084.22;5092211;28;20198;-84
2022/08/31 05:15:10;;;;;;;11.93;7.68;;;;;;;29.62;71.63;100095.84;5038792;28;20253;-80
2022/08/31 05:17:37;;;;;;;18.25;7.88;;;;;;;29.34;72.23;100106.56;5052695;28;20277;-82
2022/08/31 05:20:05;;;;;;;23.50;8.05;;;;;;;29.33;72.58;100088.78;5021455;28;20689;-82
2022/08/31 05:22:32;;;;;;;11.00;7.45;;;;;;;29.17;74.90;100093.34;5082699;28;20199;-81
2022/08/31 05:25:01;;;;;;;15.25;7.53;;;;;;;29.10;75.02;100098.22;5058950;28;20205;-81
2022/08/31 05:27:28;;;;;;;20.92;7.70;;;;;;;28.73;76.48;100072.00;5072134;28;20309;-82
2022/08/31 05:29:55;;;;;;;13.13;7.10;;;;;;;28.66;78.94;100092.81;5073100;28;20900;-83
2022/08/31 05:32:22;;;;;;;18.40;8.85;;;;;;;28.52;80.51;100095.44;5086279;28;20194;-82
2022/08/31 05:34:48;;;;;;;21.83;13.32;;;;;;;28.13;84.10;100090.63;5060839;28;20592;-81
2022/08/31 05:37:15;;;;;;;24.13;11.55;;;;;;;27.81;85.81;100087.06;5072095;28;20207;-83
2022/08/31 05:39:42;;;;;;;20.73;10.30;;;;;;;27.30;90.71;100096.06;5079749;28;20210;-84
2022/08/31 05:42:14;;;;;;;21.73;10.05;;;;;;;26.91;95.80;100093.69;5071969;28;20204;-84
2022/08/31 05:44:41;;;;;;;25.55;9.93;;;;;;;26.72;96.39;100082.22;5071061;28;20712;-84
2022/08/31 05:47:09;;;;;;;14.95;9.27;;;;;;;26.61;98.87;100098.72;5071116;28;20202;-81
2022/08/31 05:49:36;;;;;;;16.52;9.13;;;;;;;26.46;99.90;100096.00;5058559;28;20676;-80
2022/08/31 05:52:03;;;;;;;14.95;8.88;;;;;;;26.33;100.00;100101.06;5069314;28;20195;-81
2022/08/31 05:54:32;;;;;;;19.92;9.10;;;;;;;26.26;100.00;100080.16;5035858;28;20248;-79
2022/08/31 05:56:59;;;;;;;21.30;9.75;;;;;;;26.28;100.00;100104.88;5071336;28;20194;-81
2022/08/31 05:59:28;;;;;;;15.60;9.85;;;;;;;26.47;100.00;100108.38;5071665;28;20217;-81
2022/08/31 06:01:58;;;;;;;13.27;9.00;;;;;;;26.54;100.00;100105.31;5071606;28;20199;-82
2022/08/31 06:04:26;;;;;;;14.32;9.25;;;;;;;26.55;100.00;100099.06;5071562;28;20209;-81
2022/08/31 06:06:53;;;;;;;17.42;8.98;;;;;;;26.53;100.00;100098.28;5071334;28;20205;-82
2022/08/31 06:09:20;;;;;;;12.65;8.52;;;;;;;26.49;100.00;100064.78;5071654;28;20194;-84
2022/08/31 06:11:47;;;;;;;13.13;8.13;;;;;;;26.77;100.00;100095.31;5071405;28;20201;-81
2022/08/31 06:14:14;;;;;;;15.18;9.20;;;;;;;26.89;100.00;100084.94;5071366;28;20650;-83
2022/08/31 06:16:44;;;;;;;20.42;9.40;;;;;;;27.02;100.00;100087.81;5071185;28;20605;-80
2022/08/31 06:19:12;;;;;;;16.00;8.88;;;;;;;27.18;99.30;100101.19;5071323;28;20659;-84
2022/08/31 06:21:42;;;;;;;18.58;8.35;;;;;;;27.11;100.00;100090.00;5071138;28;20207;-84
2022/08/31 06:24:11;;;;;;;16.90;8.50;;;;;;;27.22;98.54;100090.25;5071352;28;20763;-85
2022/08/31 06:26:39;;;;;;;12.40;8.00;;;;;;;27.14;97.80;100081.84;5070851;28;20284;-83
2022/08/31 06:29:08;;;;;;;12.50;8.32;;;;;;;27.29;97.66;100098.81;5071360;28;20199;-84
2022/08/31 06:31:37;;;;;;;13.27;8.65;;;;;;;27.31;97.09;100107.56;5070999;28;20202;-85
2022/08/31 06:34:07;;;;;;;18.42;7.93;;;;;;;26.83;100.00;100100.34;5071121;28;20195;-84
2022/08/31 06:36:35;;;;;;;12.50;7.95;;;;;;;26.85;100.00;100103.78;5070978;28;20218;-84
2022/08/31 06:39:03;;;;;;;10.77;7.85;;;;;;;26.78;99.58;100092.56;5071080;28;20203;-85
2022/08/31 06:41:32;;;;;;;22.35;8.13;;;;;;;26.97;99.81;100104.00;5071278;28;20220;-86
2022/08/31 06:43:59;;;;;;;14.13;7.75;;;;;;;26.60;100.00;100113.00;5071161;28;20213;-85
2022/08/31 06:46:26;;;;;;;13.20;8.13;;;;;;;26.58;100.00;100095.38;5070828;28;20200;-83
2022/08/31 06:48:54;;;;;;;15.55;7.72;;;;;;;26.99;100.00;100110.13;5070796;28;20203;-85
2022/08/31 06:51:24;;;;;;;10.65;7.70;;;;;;;27.07;98.85;100105.28;5070483;28;20199;-85
2022/08/31 06:53:52;;;;;;;7.55;6.75;;;;;;;26.73;100.00;100121.22;5070065;28;20207;-82
2022/08/31 06:56:21;;;;;;;9.85;7.40;;;;;;;26.90;100.00;100112.38;5070690;28;20219;-83
2022/08/31 06:58:48;;;;;;;16.15;8.70;;;;;;;26.96;100.00;100115.63;5071123;28;20205;-86
2022/08/31 07:01:22;;;;;;;12.18;7.57;;;;;;;27.24;97.79;100095.53;5070794;28;20194;-85
2022/08/31 07:03:49;;;;;;;16.77;8.32;;;;;;;27.23;95.16;100105.31;5070855;28;20195;-86
2022/08/31 07:06:19;;;;;;;17.73;7.78;;;;;;;27.61;95.50;100105.97;5070706;28;20210;-86
2022/08/31 07:08:52;;;;;;;12.20;7.85;;;;;;;27.55;95.21;100093.81;5035550;28;20194;-84
2022/08/31 07:11:24;;;;;;;14.02;7.43;;;;;;;27.51;97.59;100094.06;5070769;28;20209;-87
2022/08/31 07:13:53;;;;;;;13.50;7.03;;;;;;;27.65;95.31;100096.84;5070456;28;20686;-86
2022/08/31 07:16:22;;;;;;;9.18;7.50;;;;;;;27.37;95.69;100097.44;5034828;28;20597;-86
2022/08/31 07:18:51;;;;;;;10.80;7.93;;;;;;;27.25;97.24;100095.47;5070205;28;20600;-85
2022/08/31 07:21:20;;;;;;;9.93;7.72;;;;;;;27.47;95.80;100100.50;5070438;28;20213;-86
2022/08/31 07:23:49;;;;;;;12.77;8.13;;;;;;;27.45;95.95;100078.44;5070581;28;20201;-87
2022/08/31 07:26:20;;;;;;;13.27;7.53;;;;;;;27.71;93.76;100107.19;5070608;28;20877;-88
2022/08/31 07:28:52;;;;;;;13.65;7.97;;;;;;;27.62;93.08;100081.03;5070603;28;20217;-88
2022/08/31 07:31:24;;;;;;;12.25;7.45;;;;;;;27.43;92.53;100048.34;5073022;28;20256;-87
2022/08/31 07:33:54;;;;;;;14.70;8.48;;;;;;;27.43;94.96;100070.47;5074652;28;20199;-85
2022/08/31 07:36:22;;;;;;;17.42;7.10;;;;;;;27.67;94.26;100097.63;5074679;28;20222;-81
2022/08/31 07:44:22;;;;;;;13.68;7.13;;;;;;;27.61;94.73;100095.31;5074511;28;20229;-86
2022/08/31 07:46:51;;;;;;;17.35;7.97;;;;;;;27.43;93.70;100072.31;5055627;28;20209;-86
2022/08/31 07:49:18;;;;;;;14.85;8.60;;;;;;;27.75;92.75;100108.72;5073830;28;20681;-85
2022/08/31 07:51:49;;;;;;;13.50;7.03;;;;;;;27.81;90.65;100095.06;5074401;28;20203;-86
2022/08/31 07:54:19;;;;;;;14.45;7.25;;;;;;;27.81;90.27;100087.06;5074106;28;20286;-87
2022/08/31 07:56:48;;;;;;;16.13;8.13;;;;;;;28.12;89.61;100096.03;5074297;28;20230;-85
2022/08/31 07:59:16;;;;;;;14.70;7.55;;;;;;;28.30;88.07;100090.50;5073896;28;20663;-85
2022/08/31 08:01:43;;;;;;;19.67;7.65;;;;;;;28.31;87.41;100092.22;5074225;28;20213;-88
2022/08/31 08:04:20;;;;;;;13.38;7.40;;;;;;;28.61;86.47;100094.06;5074019;28;21058;-87
2022/08/31 08:06:47;;;;;;;16.23;7.50;;;;;;;28.61;84.97;100094.91;5074143;28;20205;-84
2022/08/31 08:09:14;;;;;;;11.27;7.18;;;;;;;28.67;83.43;100073.25;5038695;28;20277;-83
2022/08/31 08:11:45;;;;;;;9.98;6.28;;;;;;;29.05;83.03;100094.94;5074177;28;20201;-84
2022/08/31 08:14:12;;;;;;;14.50;7.53;;;;;;;29.08;80.53;100093.88;5073873;28;20265;-84
2022/08/31 08:16:39;;;;;;;14.13;7.50;;;;;;;28.90;80.56;100090.53;5073717;28;20262;-87
2022/08/31 08:19:06;;;;;;;21.75;7.65;;;;;;;29.06;79.90;100094.00;5073776;28;20202;-87
2022/08/31 08:21:33;;;;;;;13.18;7.32;;;;;;;28.98;81.94;100099.81;5073729;28;20209;-87
2022/08/31 08:24:00;;;;;;;11.25;7.10;;;;;;;29.02;79.95;100096.00;5073642;28;20677;-85
2022/08/31 08:26:29;;;;;;;15.93;7.05;;;;;;;29.04;78.95;100093.22;5073384;28;20268;-86
2022/08/31 08:28:57;;;;;;;20.63;7.25;;;;;;;29.21;78.14;100085.06;5073631;28;20690;-88
2022/08/31 08:31:27;;;;;;;19.08;6.50;;;;;;;29.11;79.38;100088.38;5054770;28;20661;-87
2022/08/31 08:33:55;;;;;;;19.25;7.05;;;;;;;28.87;80.42;100088.91;5073754;28;20628;-86
2022/08/31 08:36:22;;;;;;;20.40;7.22;;;;;;;28.86;80.26;100083.69;5073522;28;20233;-87
2022/08/31 08:38:52;;;;;;;12.75;6.60;;;;;;;28.81;79.97;100086.63;5073635;28;20191;-86
2022/08/31 08:41:22;;;;;;;10.55;6.40;;;;;;;28.57;81.58;100080.88;5072579;28;20736;-87
2022/08/31 08:43:54;;;;;;;15.38;7.50;;;;;;;28.87;81.53;100090.72;5072943;28;20712;-87
2022/08/31 08:46:29;;;;;;;15.40;6.63;;;;;;;28.80;80.62;100092.03;5073189;28;20213;-85
2022/08/31 08:48:59;;;;;;;11.65;6.45;;;;;;;28.86;79.94;100067.66;5074534;28;20202;-87
2022/08/31 08:51:32;;;;;;;15.35;7.13;;;;;;;29.31;78.53;100091.59;5073053;28;20203;-87
2022/08/31 08:54:07;;;;;;;22.77;6.93;;;;;;;29.43;78.43;100087.28;5073159;28;20205;-87
2022/08/31 08:56:45;;;;;;;11.63;5.85;;;;;;;29.36;73.96;100093.97;5072876;28;20295;-86
2022/08/31 08:59:13;;;;;;;18.90;6.88;;;;;;;29.40;74.13;100080.31;5073166;28;20282;-85
2022/08/31 09:01:45;;;;;;;10.00;7.10;;;;;;;29.34;75.22;100085.19;5037670;28;20203;-84
2022/08/31 09:04:22;;;;;;;16.88;7.35;;;;;;;29.71;74.64;100076.56;5073175;28;20286;-87
2022/08/31 09:06:58;;;;;;;16.42;7.28;;;;;;;29.96;72.26;100075.88;5073080;28;20194;-86
2022/08/31 09:09:37;;;;;;;16.55;6.95;;;;;;;29.61;71.35;100079.94;5072898;28;20199;-86
2022/08/31 09:12:24;;;;;;;23.73;6.78;;;;;;;29.75;70.73;100056.69;5072883;28;20199;-86
2022/08/31 09:15:16;;;;;;;14.50;6.53;;;;;;;29.82;69.32;100070.53;5072824;28;20222;-84
2022/08/31 09:17:55;;;;;;;11.85;7.18;;;;;;;29.76;71.21;100054.88;4991145;28;20208;-83
2022/08/31 09:20:22;;;;;;;14.82;7.05;;;;;;;29.82;70.16;100041.13;4991248;28;20646;-86
2022/08/31 09:22:54;;;;;;;10.38;6.90;;;;;;;30.07;70.02;100053.78;4990924;28;20661;-87
2022/08/31 09:25:28;;;;;;;20.17;9.02;;;;;;;30.33;69.12;100055.56;4990760;28;20671;-79
2022/08/31 09:27:59;;;;;;;15.38;6.80;;;;;;;30.25;68.65;100041.88;4990580;28;20234;-87
2022/08/31 09:30:38;;;;;;;13.68;6.75;;;;;;;30.19;67.86;100045.78;4991053;28;20208;-85
2022/08/31 09:33:15;;;;;;;15.05;7.15;;;;;;;30.11;68.37;100032.06;4990953;28;20189;-87
2022/08/31 09:35:42;;;;;;;14.55;6.57;;;;;;;30.24;67.44;100034.78;4990525;28;20265;-85
2022/08/31 09:38:16;;;;;;;14.77;6.78;;;;;;;30.37;65.66;100031.19;4990492;28;20221;-80
2022/08/31 09:40:47;;;;;;;13.60;6.38;;;;;;;30.45;63.21;100023.53;4990516;28;20209;-87
2022/08/31 09:43:23;;;;;;;29.00;7.38;;;;;;;30.31;63.40;100009.34;4990383;28;20252;-87
2022/08/31 09:45:55;;;;;;;18.73;6.22;;;;;;;30.48;63.27;100012.63;4990682;28;20209;-83
2022/08/31 09:48:41;;;;;;;17.95;5.95;;;;;;;30.50;63.21;100028.59;4990253;28;20673;-82
2022/08/31 09:51:08;;;;;;;20.50;6.07;;;;;;;30.39;62.40;100018.53;4990986;28;20233;-87
2022/08/31 09:56:27;;;;;;;14.00;6.55;;;;;;;30.45;62.71;100031.56;5072063;28;20592;-86
2022/08/31 09:58:56;;;;;;;19.02;7.22;;;;;;;30.80;63.36;100025.59;5071979;28;20197;-87
2022/08/31 10:01:31;;;;;;;27.23;6.95;;;;;;;30.71;62.20;100032.47;5072373;28;20199;-84
2022/08/31 10:04:21;;;;;;;16.30;7.38;;;;;;;31.10;61.88;100015.47;5071551;28;20198;-86
2022/08/31 10:06:55;;;;;;;15.98;6.40;;;;;;;31.29;59.97;100009.63;5071921;28;20194;-82
2022/08/31 10:09:29;;;;;;;17.40;6.90;;;;;;;31.48;59.92;99999.31;5036319;28;20202;-82
2022/08/31 10:12:03;;;;;;;20.98;6.72;;;;;;;31.42;59.26;100010.50;5071311;28;20639;-76
2022/08/31 10:14:36;;;;;;;14.00;6.60;;;;;;;31.60;58.52;100005.66;5071133;28;20600;-85
2022/08/31 10:17:10;;;;;;;12.88;6.43;;;;;;;31.88;58.53;100003.50;5071241;28;20697;-79
2022/08/31 10:19:52;;;;;;;17.10;6.22;;;;;;;31.68;56.23;99979.13;5071421;28;20198;-82
2022/08/31 10:22:26;;;;;;;13.38;6.00;;;;;;;32.07;56.22;99999.50;5071720;28;20264;-76
2022/08/31 10:25:17;;;;;;;13.20;5.82;;;;;;;32.01;55.52;99998.06;5071382;28;20289;-83
2022/08/31 10:27:48;;;;;;;18.88;7.03;;;;;;;31.93;55.68;99995.94;5070941;28;20743;-83
2022/08/31 10:30:23;;;;;;;18.58;6.18;;;;;;;32.20;54.35;99994.91;5071149;28;20198;-85
2022/08/31 10:32:57;;;;;;;11.18;5.95;;;;;;;32.43;53.86;99991.28;5071114;28;20190;-85
2022/08/31 10:35:36;;;;;;;17.48;6.40;;;;;;;32.73;53.06;99986.28;5071140;28;20204;-85
2022/08/31 10:38:24;;;;;;;9.27;6.00;;;;;;;32.43;52.39;99978.72;5070901;28;20286;-83
2022/08/31 10:41:03;;;;;;;12.93;6.38;;;;;;;32.56;53.09;99985.84;5070836;28;20596;-84
2022/08/31 10:43:37;;;;;;;12.40;6.80;;;;;;;32.26;54.89;99981.00;5071144;28;20200;-84
2022/08/31 10:46:05;;;;;;;13.63;7.40;;;;;;;32.17;54.86;99987.09;5035811;28;20399;-84
2022/08/31 10:48:36;;;;;;;12.93;6.70;;;;;;;31.94;56.59;99976.22;5070939;28;20212;-84
2022/08/31 10:51:19;;;;;;;24.58;7.82;;;;;;;31.99;55.40;99969.66;5070818;28;20213;-84
2022/08/31 10:54:01;;;;;;;20.10;6.40;;;;;;;31.77;55.06;99957.84;5071215;28;20201;-84
2022/08/31 10:56:38;;;;;;;25.95;6.57;;;;;;;31.64;54.78;99966.91;5070779;28;20222;-86
2022/08/31 10:59:23;;;;;;;13.52;5.82;;;;;;;31.63;55.29;99954.47;5070748;28;20202;-81
2022/08/31 11:02:00;;;;;;;21.88;5.95;;;;;;;31.64;54.27;99951.69;5071046;28;20205;-82
2022/08/31 11:04:51;;;;;;;17.08;5.80;;;;;;;31.61;51.94;99946.53;5070424;28;20194;-87
2022/08/31 11:07:34;;;;;;;14.57;6.65;;;;;;;31.88;51.42;99941.81;5070711;28;20198;-86
2022/08/31 11:10:12;;;;;;;13.90;6.60;;;;;;;31.83;51.90;99924.34;5070649;28;20325;-78
2022/08/31 11:12:43;;;;;;;25.60;5.95;;;;;;;31.64;52.19;99932.06;5070656;28;20201;-77
2022/08/31 11:15:29;;;;;;;23.75;5.93;;;;;;;31.70;51.34;99929.78;5070678;28;20201;-78
2022/08/31 11:18:21;;;;;;;14.15;5.43;;;;;;;31.47;51.81;99934.13;5070469;28;20288;-78
2022/08/31 11:21:09;;;;;;;15.88;5.20;;;;;;;31.48;52.04;99914.41;5070867;28;20695;-79
2022/08/31 11:23:55;;;;;;;14.77;7.03;;;;;;;31.39;57.70;99919.59;5070746;28;20682;-76
2022/08/31 11:26:45;;;;;;;27.42;7.05;;;;;;;31.83;56.16;99919.84;5070497;28;20230;-78
2022/08/31 11:29:27;;;;;;;14.85;7.30;;;;;;;31.87;56.81;99925.81;5070780;28;20194;-78
2022/08/31 11:32:05;;;;;;;10.05;7.15;;;;;;;31.58;55.86;99903.00;5070563;28;20194;-78
2022/08/31 11:34:45;;;;;;;16.27;7.00;;;;;;;31.95;55.51;99913.56;5070510;28;20662;-79
2022/08/31 11:37:13;;;;;;;11.23;6.85;;;;;;;31.81;55.44;99916.44;5070485;28;20343;-78
2022/08/31 11:39:44;;;;;;;15.13;5.90;;;;;;;31.88;53.90;99900.72;5070434;28;20670;-78